Trail Creek, Indiana
Current Conditions -  °F | °C
As of 10:15 AM on Sunday 23 Nov 2014 (Local Time) from KMGC Reporting Station
Broken Clouds Broken Clouds  
Wind Chill: 10°   Ceiling: 12000
Heat Index: 10°   Visibility: 10mi
Dew Point:   Wind: 9mph
Humidity: 71%   Direction: 160°SSE
Pressure: 29.76"   Gusts: NA
Location:  41.687°N, 86.8677°W
Report Text: KMGC 231615Z AUTO 16008KT 140V200 10SM SCT020 SCT034 BKN120 10/05 A2976 RMK AO2
Loading
Personal Weather Stations






























Interactive Weather Map New forecast layout! Learn more

10-Day Weather Forecast

Advertisements
Track Severe Weather on mobile